sensor_id;sensor_type;location;lat;lon;timestamp;P1;durP1;ratioP1;P2;durP2;ratioP2
52614;SDS011;38508;53.158;6.614;2022-12-24T00:02:10;124.75;;;114.68;;
52614;SDS011;38508;53.158;6.614;2022-12-24T00:04:36;126.97;;;116.07;;
52614;SDS011;38508;53.158;6.614;2022-12-24T00:07:02;128.73;;;117.35;;
52614;SDS011;38508;53.158;6.614;2022-12-24T00:09:28;128.27;;;118.03;;
52614;SDS011;38508;53.158;6.614;2022-12-24T00:11:53;124.75;;;115.47;;
52614;SDS011;38508;53.158;6.614;2022-12-24T00:14:19;129.73;;;117.88;;
52614;SDS011;38508;53.158;6.614;2022-12-24T00:16:45;128.68;;;116.60;;
52614;SDS011;38508;53.158;6.614;2022-12-24T00:19:11;125.70;;;114.45;;
52614;SDS011;38508;53.158;6.614;2022-12-24T00:21:37;130.57;;;118.18;;
52614;SDS011;38508;53.158;6.614;2022-12-24T00:24:03;125.20;;;115.97;;
52614;SDS011;38508;53.158;6.614;2022-12-24T00:26:30;126.47;;;115.93;;
52614;SDS011;38508;53.158;6.614;2022-12-24T00:28:59;122.65;;;114.05;;
52614;SDS011;38508;53.158;6.614;2022-12-24T00:31:25;121.35;;;112.88;;
52614;SDS011;38508;53.158;6.614;2022-12-24T00:33:51;121.85;;;112.72;;
52614;SDS011;38508;53.158;6.614;2022-12-24T00:36:17;119.85;;;111.82;;
52614;SDS011;38508;53.158;6.614;2022-12-24T00:38:44;118.10;;;109.80;;
52614;SDS011;38508;53.158;6.614;2022-12-24T00:41:10;121.38;;;112.50;;
52614;SDS011;38508;53.158;6.614;2022-12-24T00:43:50;120.60;;;110.85;;
52614;SDS011;38508;53.158;6.614;2022-12-24T00:46:19;115.70;;;107.90;;
52614;SDS011;38508;53.158;6.614;2022-12-24T00:48:46;112.28;;;104.75;;
52614;SDS011;38508;53.158;6.614;2022-12-24T00:51:12;125.10;;;114.45;;
52614;SDS011;38508;53.158;6.614;2022-12-24T00:53:38;121.63;;;111.32;;
52614;SDS011;38508;53.158;6.614;2022-12-24T00:56:04;121.75;;;112.50;;
52614;SDS011;38508;53.158;6.614;2022-12-24T00:58:30;119.38;;;110.57;;
52614;SDS011;38508;53.158;6.614;2022-12-24T01:00:56;121.45;;;113.43;;
52614;SDS011;38508;53.158;6.614;2022-12-24T01:03:21;119.65;;;111.55;;
52614;SDS011;38508;53.158;6.614;2022-12-24T01:05:47;123.07;;;114.38;;
52614;SDS011;38508;53.158;6.614;2022-12-24T01:08:15;131.23;;;120.25;;
52614;SDS011;38508;53.158;6.614;2022-12-24T01:10:40;123.40;;;114.03;;
52614;SDS011;38508;53.158;6.614;2022-12-24T01:13:06;123.10;;;113.88;;
52614;SDS011;38508;53.158;6.614;2022-12-24T01:15:32;121.97;;;113.53;;
52614;SDS011;38508;53.158;6.614;2022-12-24T01:17:57;119.47;;;111.18;;
52614;SDS011;38508;53.158;6.614;2022-12-24T01:20:23;121.05;;;112.95;;
52614;SDS011;38508;53.158;6.614;2022-12-24T01:22:51;114.40;;;106.60;;
52614;SDS011;38508;53.158;6.614;2022-12-24T01:25:16;122.65;;;112.90;;
52614;SDS011;38508;53.158;6.614;2022-12-24T01:27:42;123.85;;;115.38;;
52614;SDS011;38508;53.158;6.614;2022-12-24T01:30:08;126.85;;;117.30;;
52614;SDS011;38508;53.158;6.614;2022-12-24T01:32:38;128.07;;;117.47;;
52614;SDS011;38508;53.158;6.614;2022-12-24T01:35:04;122.53;;;112.30;;
52614;SDS011;38508;53.158;6.614;2022-12-24T01:37:30;118.93;;;110.93;;
52614;SDS011;38508;53.158;6.614;2022-12-24T01:39:55;124.22;;;115.82;;
52614;SDS011;38508;53.158;6.614;2022-12-24T01:42:42;122.95;;;114.35;;
52614;SDS011;38508;53.158;6.614;2022-12-24T01:45:37;112.35;;;104.57;;
52614;SDS011;38508;53.158;6.614;2022-12-24T01:53:36;123.60;;;112.47;;
52614;SDS011;38508;53.158;6.614;2022-12-24T01:56:03;127.18;;;113.55;;
52614;SDS011;38508;53.158;6.614;2022-12-24T01:58:30;121.22;;;112.15;;
52614;SDS011;38508;53.158;6.614;2022-12-24T02:00:57;117.13;;;107.78;;
52614;SDS011;38508;53.158;6.614;2022-12-24T02:03:23;120.20;;;111.30;;
52614;SDS011;38508;53.158;6.614;2022-12-24T02:05:53;115.90;;;107.43;;
52614;SDS011;38508;53.158;6.614;2022-12-24T02:08:21;118.30;;;110.25;;
52614;SDS011;38508;53.158;6.614;2022-12-24T02:10:46;116.15;;;108.45;;
52614;SDS011;38508;53.158;6.614;2022-12-24T02:13:14;116.68;;;108.57;;
52614;SDS011;38508;53.158;6.614;2022-12-24T02:27:56;114.20;;;106.72;;
52614;SDS011;38508;53.158;6.614;2022-12-24T02:39:27;110.78;;;102.72;;
52614;SDS011;38508;53.158;6.614;2022-12-24T02:41:36;115.95;;;106.43;;
52614;SDS011;38508;53.158;6.614;2022-12-24T02:44:26;114.40;;;106.43;;
52614;SDS011;38508;53.158;6.614;2022-12-24T02:46:54;121.43;;;110.53;;
52614;SDS011;38508;53.158;6.614;2022-12-24T02:49:23;115.72;;;107.75;;
52614;SDS011;38508;53.158;6.614;2022-12-24T02:51:49;118.88;;;110.32;;
52614;SDS011;38508;53.158;6.614;2022-12-24T02:54:14;117.72;;;109.70;;
52614;SDS011;38508;53.158;6.614;2022-12-24T03:12:31;136.00;;;122.63;;
52614;SDS011;38508;53.158;6.614;2022-12-24T03:15:00;136.60;;;122.75;;
52614;SDS011;38508;53.158;6.614;2022-12-24T03:17:28;157.63;;;127.55;;
52614;SDS011;38508;53.158;6.614;2022-12-24T03:19:55;140.20;;;126.03;;
52614;SDS011;38508;53.158;6.614;2022-12-24T03:22:20;137.63;;;123.55;;
52614;SDS011;38508;53.158;6.614;2022-12-24T03:24:48;133.63;;;121.70;;
52614;SDS011;38508;53.158;6.614;2022-12-24T03:27:14;129.63;;;118.22;;
52614;SDS011;38508;53.158;6.614;2022-12-24T03:29:40;131.25;;;119.75;;
52614;SDS011;38508;53.158;6.614;2022-12-24T03:32:07;125.15;;;115.30;;
52614;SDS011;38508;53.158;6.614;2022-12-24T03:34:33;124.22;;;113.72;;
52614;SDS011;38508;53.158;6.614;2022-12-24T03:36:58;123.82;;;114.20;;
52614;SDS011;38508;53.158;6.614;2022-12-24T03:39:24;125.22;;;114.20;;
52614;SDS011;38508;53.158;6.614;2022-12-24T03:41:50;122.20;;;112.13;;
52614;SDS011;38508;53.158;6.614;2022-12-24T03:44:15;123.40;;;112.95;;
52614;SDS011;38508;53.158;6.614;2022-12-24T03:46:41;124.10;;;114.13;;
52614;SDS011;38508;53.158;6.614;2022-12-24T03:49:07;123.00;;;112.88;;
52614;SDS011;38508;53.158;6.614;2022-12-24T03:51:32;122.95;;;113.00;;
52614;SDS011;38508;53.158;6.614;2022-12-24T03:53:58;121.15;;;111.28;;
52614;SDS011;38508;53.158;6.614;2022-12-24T03:56:24;122.28;;;112.18;;
52614;SDS011;38508;53.158;6.614;2022-12-24T03:58:51;119.38;;;109.13;;
52614;SDS011;38508;53.158;6.614;2022-12-24T04:01:17;122.85;;;112.20;;
52614;SDS011;38508;53.158;6.614;2022-12-24T04:03:43;113.35;;;103.07;;
52614;SDS011;38508;53.158;6.614;2022-12-24T04:06:13;117.15;;;106.55;;
52614;SDS011;38508;53.158;6.614;2022-12-24T04:08:41;116.38;;;105.85;;
52614;SDS011;38508;53.158;6.614;2022-12-24T04:11:08;115.78;;;105.28;;
52614;SDS011;38508;53.158;6.614;2022-12-24T04:13:35;114.10;;;104.45;;
52614;SDS011;38508;53.158;6.614;2022-12-24T04:16:08;117.25;;;106.70;;
52614;SDS011;38508;53.158;6.614;2022-12-24T04:18:39;114.28;;;104.40;;
52614;SDS011;38508;53.158;6.614;2022-12-24T04:21:05;115.75;;;104.97;;
52614;SDS011;38508;53.158;6.614;2022-12-24T04:23:33;114.32;;;103.82;;
52614;SDS011;38508;53.158;6.614;2022-12-24T04:26:01;115.80;;;103.75;;
52614;SDS011;38508;53.158;6.614;2022-12-24T04:28:28;113.72;;;102.07;;
52614;SDS011;38508;53.158;6.614;2022-12-24T04:31:04;110.95;;;100.88;;
52614;SDS011;38508;53.158;6.614;2022-12-24T04:33:31;110.25;;;98.78;;
52614;SDS011;38508;53.158;6.614;2022-12-24T04:35:58;107.18;;;97.00;;
52614;SDS011;38508;53.158;6.614;2022-12-24T04:38:25;108.93;;;98.40;;
52614;SDS011;38508;53.158;6.614;2022-12-24T04:41:01;107.38;;;96.43;;
52614;SDS011;38508;53.158;6.614;2022-12-24T04:43:28;103.85;;;94.18;;
52614;SDS011;38508;53.158;6.614;2022-12-24T04:45:54;106.28;;;96.72;;
52614;SDS011;38508;53.158;6.614;2022-12-24T04:48:20;107.07;;;95.45;;
52614;SDS011;38508;53.158;6.614;2022-12-24T04:50:46;102.93;;;91.88;;
52614;SDS011;38508;53.158;6.614;2022-12-24T04:53:12;112.10;;;90.15;;
52614;SDS011;38508;53.158;6.614;2022-12-24T04:55:48;104.18;;;93.32;;
52614;SDS011;38508;53.158;6.614;2022-12-24T04:58:13;102.90;;;92.40;;
52614;SDS011;38508;53.158;6.614;2022-12-24T05:00:39;103.30;;;93.03;;
52614;SDS011;38508;53.158;6.614;2022-12-24T05:03:05;104.75;;;94.38;;
52614;SDS011;38508;53.158;6.614;2022-12-24T05:05:31;99.80;;;90.53;;
52614;SDS011;38508;53.158;6.614;2022-12-24T05:07:56;105.25;;;94.97;;
52614;SDS011;38508;53.158;6.614;2022-12-24T05:10:22;103.95;;;93.40;;
52614;SDS011;38508;53.158;6.614;2022-12-24T05:12:48;107.45;;;97.32;;
52614;SDS011;38508;53.158;6.614;2022-12-24T05:15:13;105.55;;;94.32;;
52614;SDS011;38508;53.158;6.614;2022-12-24T05:17:39;108.78;;;97.93;;
52614;SDS011;38508;53.158;6.614;2022-12-24T05:20:05;109.60;;;97.55;;
52614;SDS011;38508;53.158;6.614;2022-12-24T05:22:31;105.43;;;94.95;;
52614;SDS011;38508;53.158;6.614;2022-12-24T05:25:15;104.20;;;93.80;;
52614;SDS011;38508;53.158;6.614;2022-12-24T05:28:00;103.10;;;92.75;;
52614;SDS011;38508;53.158;6.614;2022-12-24T05:30:25;102.20;;;93.35;;
52614;SDS011;38508;53.158;6.614;2022-12-24T05:32:51;104.80;;;94.53;;
52614;SDS011;38508;53.158;6.614;2022-12-24T05:35:17;103.20;;;93.05;;
52614;SDS011;38508;53.158;6.614;2022-12-24T05:37:42;102.95;;;92.88;;
52614;SDS011;38508;53.158;6.614;2022-12-24T05:40:08;99.82;;;89.25;;
52614;SDS011;38508;53.158;6.614;2022-12-24T05:42:34;106.53;;;95.25;;
52614;SDS011;38508;53.158;6.614;2022-12-24T05:45:00;102.07;;;91.50;;
52614;SDS011;38508;53.158;6.614;2022-12-24T05:47:25;107.82;;;95.60;;
52614;SDS011;38508;53.158;6.614;2022-12-24T05:49:51;111.05;;;96.63;;
52614;SDS011;38508;53.158;6.614;2022-12-24T05:52:16;106.28;;;95.40;;
52614;SDS011;38508;53.158;6.614;2022-12-24T05:54:42;102.95;;;92.18;;
52614;SDS011;38508;53.158;6.614;2022-12-24T05:57:08;107.05;;;95.90;;
52614;SDS011;38508;53.158;6.614;2022-12-24T05:59:34;107.35;;;95.88;;
52614;SDS011;38508;53.158;6.614;2022-12-24T06:01:59;105.13;;;94.90;;
52614;SDS011;38508;53.158;6.614;2022-12-24T06:04:25;106.13;;;94.70;;
52614;SDS011;38508;53.158;6.614;2022-12-24T06:06:50;103.15;;;91.65;;
52614;SDS011;38508;53.158;6.614;2022-12-24T06:09:16;104.88;;;92.53;;
52614;SDS011;38508;53.158;6.614;2022-12-24T06:11:42;109.13;;;85.88;;
52614;SDS011;38508;53.158;6.614;2022-12-24T06:14:07;113.50;;;91.47;;
52614;SDS011;38508;53.158;6.614;2022-12-24T06:16:33;99.00;;;88.88;;
52614;SDS011;38508;53.158;6.614;2022-12-24T06:18:59;105.60;;;94.07;;
52614;SDS011;38508;53.158;6.614;2022-12-24T06:21:25;105.15;;;92.43;;
52614;SDS011;38508;53.158;6.614;2022-12-24T06:23:51;115.10;;;91.18;;
52614;SDS011;38508;53.158;6.614;2022-12-24T06:26:19;98.32;;;88.78;;
52614;SDS011;38508;53.158;6.614;2022-12-24T06:28:46;114.78;;;90.85;;
52614;SDS011;38508;53.158;6.614;2022-12-24T06:31:13;109.78;;;90.32;;
52614;SDS011;38508;53.158;6.614;2022-12-24T06:33:41;117.88;;;93.82;;
52614;SDS011;38508;53.158;6.614;2022-12-24T06:36:08;103.03;;;92.72;;
52614;SDS011;38508;53.158;6.614;2022-12-24T06:38:37;103.90;;;91.90;;
52614;SDS011;38508;53.158;6.614;2022-12-24T06:41:06;112.90;;;88.43;;
52614;SDS011;38508;53.158;6.614;2022-12-24T06:43:32;109.07;;;91.10;;
52614;SDS011;38508;53.158;6.614;2022-12-24T06:45:59;105.40;;;92.25;;
52614;SDS011;38508;53.158;6.614;2022-12-24T06:48:25;105.57;;;92.40;;
52614;SDS011;38508;53.158;6.614;2022-12-24T06:50:51;100.75;;;89.55;;
52614;SDS011;38508;53.158;6.614;2022-12-24T06:53:17;99.53;;;84.53;;
52614;SDS011;38508;53.158;6.614;2022-12-24T06:55:42;100.90;;;85.03;;
52614;SDS011;38508;53.158;6.614;2022-12-24T06:58:08;102.60;;;89.90;;
52614;SDS011;38508;53.158;6.614;2022-12-24T07:00:34;108.28;;;91.57;;
52614;SDS011;38508;53.158;6.614;2022-12-24T07:03:00;102.60;;;88.85;;
52614;SDS011;38508;53.158;6.614;2022-12-24T07:05:26;98.45;;;87.90;;
52614;SDS011;38508;53.158;6.614;2022-12-24T07:07:52;97.57;;;84.25;;
52614;SDS011;38508;53.158;6.614;2022-12-24T07:10:18;96.03;;;85.15;;
52614;SDS011;38508;53.158;6.614;2022-12-24T07:12:45;103.47;;;88.47;;
52614;SDS011;38508;53.158;6.614;2022-12-24T07:15:11;112.97;;;88.97;;
52614;SDS011;38508;53.158;6.614;2022-12-24T07:17:37;101.25;;;87.40;;
52614;SDS011;38508;53.158;6.614;2022-12-24T07:20:03;110.85;;;82.70;;
52614;SDS011;38508;53.158;6.614;2022-12-24T07:22:30;100.25;;;77.65;;
52614;SDS011;38508;53.158;6.614;2022-12-24T07:24:55;97.32;;;79.28;;
52614;SDS011;38508;53.158;6.614;2022-12-24T07:27:21;91.20;;;81.80;;
52614;SDS011;38508;53.158;6.614;2022-12-24T07:29:47;91.45;;;81.82;;
52614;SDS011;38508;53.158;6.614;2022-12-24T07:32:13;92.15;;;81.97;;
52614;SDS011;38508;53.158;6.614;2022-12-24T07:34:38;92.80;;;78.07;;
52614;SDS011;38508;53.158;6.614;2022-12-24T07:37:04;100.05;;;80.75;;
52614;SDS011;38508;53.158;6.614;2022-12-24T07:39:31;97.95;;;81.10;;
52614;SDS011;38508;53.158;6.614;2022-12-24T07:41:56;91.18;;;79.93;;
52614;SDS011;38508;53.158;6.614;2022-12-24T07:44:22;98.88;;;78.38;;
52614;SDS011;38508;53.158;6.614;2022-12-24T07:46:48;106.40;;;80.80;;
52614;SDS011;38508;53.158;6.614;2022-12-24T07:49:13;90.65;;;76.50;;
52614;SDS011;38508;53.158;6.614;2022-12-24T07:51:39;98.65;;;74.68;;
52614;SDS011;38508;53.158;6.614;2022-12-24T07:54:05;104.43;;;70.63;;
52614;SDS011;38508;53.158;6.614;2022-12-24T07:56:31;109.05;;;79.00;;
52614;SDS011;38508;53.158;6.614;2022-12-24T07:58:57;102.72;;;79.38;;
52614;SDS011;38508;53.158;6.614;2022-12-24T08:01:22;90.07;;;80.65;;
52614;SDS011;38508;53.158;6.614;2022-12-24T08:03:48;96.30;;;82.70;;
52614;SDS011;38508;53.158;6.614;2022-12-24T08:06:18;94.13;;;81.32;;
52614;SDS011;38508;53.158;6.614;2022-12-24T08:08:44;100.05;;;81.18;;
52614;SDS011;38508;53.158;6.614;2022-12-24T08:11:10;92.07;;;82.75;;
52614;SDS011;38508;53.158;6.614;2022-12-24T08:13:36;93.95;;;82.85;;
52614;SDS011;38508;53.158;6.614;2022-12-24T08:16:03;93.60;;;84.53;;
52614;SDS011;38508;53.158;6.614;2022-12-24T08:18:29;102.65;;;84.57;;
52614;SDS011;38508;53.158;6.614;2022-12-24T08:20:55;96.32;;;85.85;;
52614;SDS011;38508;53.158;6.614;2022-12-24T08:23:21;105.03;;;79.15;;
52614;SDS011;38508;53.158;6.614;2022-12-24T08:25:47;97.40;;;81.80;;
52614;SDS011;38508;53.158;6.614;2022-12-24T08:28:14;95.90;;;83.32;;
52614;SDS011;38508;53.158;6.614;2022-12-24T08:30:41;102.68;;;78.72;;
52614;SDS011;38508;53.158;6.614;2022-12-24T08:33:07;96.65;;;80.55;;
52614;SDS011;38508;53.158;6.614;2022-12-24T08:35:33;105.20;;;79.60;;
52614;SDS011;38508;53.158;6.614;2022-12-24T08:37:59;92.68;;;79.65;;
52614;SDS011;38508;53.158;6.614;2022-12-24T08:40:24;95.07;;;81.95;;
52614;SDS011;38508;53.158;6.614;2022-12-24T08:42:50;94.97;;;81.75;;
52614;SDS011;38508;53.158;6.614;2022-12-24T08:45:16;98.68;;;82.03;;
52614;SDS011;38508;53.158;6.614;2022-12-24T08:47:42;105.38;;;84.47;;
52614;SDS011;38508;53.158;6.614;2022-12-24T08:50:08;110.40;;;79.38;;
52614;SDS011;38508;53.158;6.614;2022-12-24T08:52:34;99.85;;;82.55;;
52614;SDS011;38508;53.158;6.614;2022-12-24T08:55:00;101.07;;;83.03;;
52614;SDS011;38508;53.158;6.614;2022-12-24T08:57:26;92.15;;;79.00;;
52614;SDS011;38508;53.158;6.614;2022-12-24T08:59:52;96.22;;;80.47;;
52614;SDS011;38508;53.158;6.614;2022-12-24T09:02:18;107.45;;;80.53;;
52614;SDS011;38508;53.158;6.614;2022-12-24T09:04:44;100.53;;;78.70;;
52614;SDS011;38508;53.158;6.614;2022-12-24T09:07:10;96.18;;;78.30;;
52614;SDS011;38508;53.158;6.614;2022-12-24T09:09:35;110.43;;;79.00;;
52614;SDS011;38508;53.158;6.614;2022-12-24T09:12:03;92.22;;;74.38;;
52614;SDS011;38508;53.158;6.614;2022-12-24T09:14:32;95.38;;;76.55;;
52614;SDS011;38508;53.158;6.614;2022-12-24T09:16:58;88.72;;;76.70;;
52614;SDS011;38508;53.158;6.614;2022-12-24T09:19:24;86.10;;;74.95;;
52614;SDS011;38508;53.158;6.614;2022-12-24T09:21:51;96.70;;;74.85;;
52614;SDS011;38508;53.158;6.614;2022-12-24T09:24:17;96.55;;;72.38;;
52614;SDS011;38508;53.158;6.614;2022-12-24T09:26:42;109.80;;;76.43;;
52614;SDS011;38508;53.158;6.614;2022-12-24T09:29:10;98.00;;;74.05;;
52614;SDS011;38508;53.158;6.614;2022-12-24T09:31:36;96.97;;;77.50;;
52614;SDS011;38508;53.158;6.614;2022-12-24T09:34:01;89.82;;;78.72;;
52614;SDS011;38508;53.158;6.614;2022-12-24T09:36:27;98.53;;;75.28;;
52614;SDS011;38508;53.158;6.614;2022-12-24T09:38:52;106.13;;;77.72;;
52614;SDS011;38508;53.158;6.614;2022-12-24T09:43:59;96.20;;;78.03;;
52614;SDS011;38508;53.158;6.614;2022-12-24T09:46:51;97.57;;;79.03;;
52614;SDS011;38508;53.158;6.614;2022-12-24T09:49:22;96.88;;;73.50;;
52614;SDS011;38508;53.158;6.614;2022-12-24T09:51:52;101.97;;;71.90;;
52614;SDS011;38508;53.158;6.614;2022-12-24T09:54:32;87.18;;;68.10;;
52614;SDS011;38508;53.158;6.614;2022-12-24T09:57:03;84.50;;;72.10;;
52614;SDS011;38508;53.158;6.614;2022-12-24T09:59:45;86.30;;;72.60;;
52614;SDS011;38508;53.158;6.614;2022-12-24T10:02:16;88.53;;;75.75;;
52614;SDS011;38508;53.158;6.614;2022-12-24T10:04:43;95.57;;;74.72;;
52614;SDS011;38508;53.158;6.614;2022-12-24T10:15:37;104.30;;;83.40;;
52614;SDS011;38508;53.158;6.614;2022-12-24T10:23:50;89.13;;;70.70;;
52614;SDS011;38508;53.158;6.614;2022-12-24T10:29:14;87.25;;;70.50;;
52614;SDS011;38508;53.158;6.614;2022-12-24T10:32:00;88.03;;;75.40;;
52614;SDS011;38508;53.158;6.614;2022-12-24T10:34:45;116.05;;;75.88;;
52614;SDS011;38508;53.158;6.614;2022-12-24T10:37:26;105.00;;;76.97;;
52614;SDS011;38508;53.158;6.614;2022-12-24T10:39:53;92.20;;;77.20;;
52614;SDS011;38508;53.158;6.614;2022-12-24T10:42:21;87.93;;;75.43;;
52614;SDS011;38508;53.158;6.614;2022-12-24T10:44:51;86.70;;;77.43;;
52614;SDS011;38508;53.158;6.614;2022-12-24T10:47:21;86.28;;;77.38;;
52614;SDS011;38508;53.158;6.614;2022-12-24T10:50:02;94.85;;;77.00;;
52614;SDS011;38508;53.158;6.614;2022-12-24T10:52:34;86.90;;;78.13;;
52614;SDS011;38508;53.158;6.614;2022-12-24T10:55:12;90.18;;;81.35;;
52614;SDS011;38508;53.158;6.614;2022-12-24T10:58:01;87.22;;;78.45;;
52614;SDS011;38508;53.158;6.614;2022-12-24T11:00:30;85.70;;;77.40;;
52614;SDS011;38508;53.158;6.614;2022-12-24T11:03:14;93.95;;;83.95;;
52614;SDS011;38508;53.158;6.614;2022-12-24T11:06:00;93.40;;;83.90;;
52614;SDS011;38508;53.158;6.614;2022-12-24T11:08:30;86.75;;;78.72;;
52614;SDS011;38508;53.158;6.614;2022-12-24T11:13:27;89.35;;;81.22;;
52614;SDS011;38508;53.158;6.614;2022-12-24T11:16:04;90.25;;;82.10;;
52614;SDS011;38508;53.158;6.614;2022-12-24T11:18:50;89.65;;;80.45;;
52614;SDS011;38508;53.158;6.614;2022-12-24T11:21:24;89.95;;;82.53;;
52614;SDS011;38508;53.158;6.614;2022-12-24T11:23:56;90.90;;;82.43;;
52614;SDS011;38508;53.158;6.614;2022-12-24T11:26:25;91.28;;;82.60;;
52614;SDS011;38508;53.158;6.614;2022-12-24T11:29:36;92.20;;;83.70;;
52614;SDS011;38508;53.158;6.614;2022-12-24T11:31:48;95.35;;;86.05;;
52614;SDS011;38508;53.158;6.614;2022-12-24T11:36:48;83.40;;;75.95;;
52614;SDS011;38508;53.158;6.614;2022-12-24T11:39:19;87.30;;;78.85;;
52614;SDS011;38508;53.158;6.614;2022-12-24T11:41:50;82.97;;;75.00;;
52614;SDS011;38508;53.158;6.614;2022-12-24T11:44:22;80.80;;;72.53;;
52614;SDS011;38508;53.158;6.614;2022-12-24T11:46:51;87.65;;;79.95;;
52614;SDS011;38508;53.158;6.614;2022-12-24T11:49:25;87.38;;;79.28;;
52614;SDS011;38508;53.158;6.614;2022-12-24T11:57:42;90.32;;;81.20;;
52614;SDS011;38508;53.158;6.614;2022-12-24T12:00:14;92.07;;;84.75;;
52614;SDS011;38508;53.158;6.614;2022-12-24T12:02:40;91.10;;;82.03;;
52614;SDS011;38508;53.158;6.614;2022-12-24T12:05:10;82.05;;;73.60;;
52614;SDS011;38508;53.158;6.614;2022-12-24T12:07:41;83.05;;;75.65;;
52614;SDS011;38508;53.158;6.614;2022-12-24T12:13:05;84.68;;;76.03;;
52614;SDS011;38508;53.158;6.614;2022-12-24T12:15:34;81.65;;;74.45;;
52614;SDS011;38508;53.158;6.614;2022-12-24T12:18:10;78.65;;;72.47;;
52614;SDS011;38508;53.158;6.614;2022-12-24T12:20:58;76.75;;;69.68;;
52614;SDS011;38508;53.158;6.614;2022-12-24T12:23:29;71.90;;;64.85;;
52614;SDS011;38508;53.158;6.614;2022-12-24T12:28:34;76.93;;;69.45;;
52614;SDS011;38508;53.158;6.614;2022-12-24T12:34:10;78.55;;;72.00;;
52614;SDS011;38508;53.158;6.614;2022-12-24T12:36:44;81.18;;;74.47;;
52614;SDS011;38508;53.158;6.614;2022-12-24T12:39:13;81.82;;;74.15;;
52614;SDS011;38508;53.158;6.614;2022-12-24T12:47:43;89.90;;;81.55;;
52614;SDS011;38508;53.158;6.614;2022-12-24T12:50:22;78.82;;;71.65;;
52614;SDS011;38508;53.158;6.614;2022-12-24T12:58:24;87.78;;;80.38;;
52614;SDS011;38508;53.158;6.614;2022-12-24T13:00:51;84.88;;;77.85;;
52614;SDS011;38508;53.158;6.614;2022-12-24T13:03:42;82.70;;;76.13;;
52614;SDS011;38508;53.158;6.614;2022-12-24T13:11:23;84.60;;;77.03;;
52614;SDS011;38508;53.158;6.614;2022-12-24T13:14:36;87.43;;;80.15;;
52614;SDS011;38508;53.158;6.614;2022-12-24T13:22:25;79.15;;;71.82;;
52614;SDS011;38508;53.158;6.614;2022-12-24T13:24:52;83.05;;;75.78;;
52614;SDS011;38508;53.158;6.614;2022-12-24T13:27:21;88.20;;;80.93;;
52614;SDS011;38508;53.158;6.614;2022-12-24T13:29:50;90.18;;;82.85;;
52614;SDS011;38508;53.158;6.614;2022-12-24T13:37:22;79.53;;;72.65;;
52614;SDS011;38508;53.158;6.614;2022-12-24T13:40:10;85.05;;;77.35;;
52614;SDS011;38508;53.158;6.614;2022-12-24T13:47:57;88.93;;;80.70;;
52614;SDS011;38508;53.158;6.614;2022-12-24T13:50:35;84.05;;;77.30;;
52614;SDS011;38508;53.158;6.614;2022-12-24T13:55:54;84.93;;;77.75;;
52614;SDS011;38508;53.158;6.614;2022-12-24T13:58:22;89.95;;;82.82;;
52614;SDS011;38508;53.158;6.614;2022-12-24T14:00:53;87.85;;;81.47;;
52614;SDS011;38508;53.158;6.614;2022-12-24T14:03:24;90.05;;;82.38;;
52614;SDS011;38508;53.158;6.614;2022-12-24T14:05:57;91.55;;;83.97;;
52614;SDS011;38508;53.158;6.614;2022-12-24T14:08:27;94.72;;;87.38;;
52614;SDS011;38508;53.158;6.614;2022-12-24T14:16:18;90.82;;;83.35;;
52614;SDS011;38508;53.158;6.614;2022-12-24T14:24:22;82.93;;;75.32;;
52614;SDS011;38508;53.158;6.614;2022-12-24T14:26:56;82.07;;;76.15;;
52614;SDS011;38508;53.158;6.614;2022-12-24T14:29:27;83.97;;;77.07;;
52614;SDS011;38508;53.158;6.614;2022-12-24T14:31:58;86.00;;;78.32;;
52614;SDS011;38508;53.158;6.614;2022-12-24T14:34:28;85.85;;;78.25;;
52614;SDS011;38508;53.158;6.614;2022-12-24T14:36:54;78.47;;;72.05;;
52614;SDS011;38508;53.158;6.614;2022-12-24T14:39:27;71.65;;;66.03;;
52614;SDS011;38508;53.158;6.614;2022-12-24T14:42:01;65.43;;;60.55;;
52614;SDS011;38508;53.158;6.614;2022-12-24T14:47:34;60.47;;;54.75;;
52614;SDS011;38508;53.158;6.614;2022-12-24T14:55:55;58.70;;;53.17;;
52614;SDS011;38508;53.158;6.614;2022-12-24T14:58:25;59.45;;;54.85;;
52614;SDS011;38508;53.158;6.614;2022-12-24T15:00:58;63.72;;;58.05;;
52614;SDS011;38508;53.158;6.614;2022-12-24T15:03:29;62.42;;;57.05;;
52614;SDS011;38508;53.158;6.614;2022-12-24T15:06:05;64.80;;;59.42;;
52614;SDS011;38508;53.158;6.614;2022-12-24T15:08:38;69.35;;;63.78;;
52614;SDS011;38508;53.158;6.614;2022-12-24T15:11:09;71.38;;;65.60;;
52614;SDS011;38508;53.158;6.614;2022-12-24T15:13:42;72.85;;;67.78;;
52614;SDS011;38508;53.158;6.614;2022-12-24T15:16:13;77.85;;;70.95;;
52614;SDS011;38508;53.158;6.614;2022-12-24T15:18:51;69.97;;;64.25;;
52614;SDS011;38508;53.158;6.614;2022-12-24T15:21:28;69.50;;;63.75;;
52614;SDS011;38508;53.158;6.614;2022-12-24T15:23:58;66.63;;;61.22;;
52614;SDS011;38508;53.158;6.614;2022-12-24T15:26:26;74.57;;;66.68;;
52614;SDS011;38508;53.158;6.614;2022-12-24T15:28:55;67.65;;;62.42;;
52614;SDS011;38508;53.158;6.614;2022-12-24T15:31:23;77.85;;;71.75;;
52614;SDS011;38508;53.158;6.614;2022-12-24T15:33:51;75.63;;;69.85;;
52614;SDS011;38508;53.158;6.614;2022-12-24T15:36:27;71.25;;;65.30;;
52614;SDS011;38508;53.158;6.614;2022-12-24T15:38:56;74.38;;;67.95;;
52614;SDS011;38508;53.158;6.614;2022-12-24T15:41:25;77.18;;;71.60;;
52614;SDS011;38508;53.158;6.614;2022-12-24T15:43:54;78.63;;;72.88;;
52614;SDS011;38508;53.158;6.614;2022-12-24T15:46:25;81.22;;;75.57;;
52614;SDS011;38508;53.158;6.614;2022-12-24T15:48:54;80.00;;;73.45;;
52614;SDS011;38508;53.158;6.614;2022-12-24T15:51:24;80.25;;;73.60;;
52614;SDS011;38508;53.158;6.614;2022-12-24T15:53:55;76.63;;;70.63;;
52614;SDS011;38508;53.158;6.614;2022-12-24T15:56:40;80.22;;;73.13;;
52614;SDS011;38508;53.158;6.614;2022-12-24T16:01:43;86.30;;;79.30;;
52614;SDS011;38508;53.158;6.614;2022-12-24T16:04:12;86.85;;;80.45;;
52614;SDS011;38508;53.158;6.614;2022-12-24T16:06:55;82.32;;;76.72;;
52614;SDS011;38508;53.158;6.614;2022-12-24T16:09:55;84.35;;;77.75;;
52614;SDS011;38508;53.158;6.614;2022-12-24T16:12:15;81.60;;;75.57;;
52614;SDS011;38508;53.158;6.614;2022-12-24T16:14:54;83.28;;;76.63;;
52614;SDS011;38508;53.158;6.614;2022-12-24T16:17:23;87.78;;;81.63;;
52614;SDS011;38508;53.158;6.614;2022-12-24T16:19:53;87.75;;;81.20;;
52614;SDS011;38508;53.158;6.614;2022-12-24T16:22:22;78.95;;;72.35;;
52614;SDS011;38508;53.158;6.614;2022-12-24T16:25:14;82.88;;;76.75;;
52614;SDS011;38508;53.158;6.614;2022-12-24T16:27:51;84.03;;;77.68;;
52614;SDS011;38508;53.158;6.614;2022-12-24T16:30:18;86.45;;;79.85;;
52614;SDS011;38508;53.158;6.614;2022-12-24T16:32:45;86.97;;;79.35;;
52614;SDS011;38508;53.158;6.614;2022-12-24T16:35:33;84.00;;;77.07;;
52614;SDS011;38508;53.158;6.614;2022-12-24T16:38:00;78.03;;;72.15;;
52614;SDS011;38508;53.158;6.614;2022-12-24T16:40:26;82.05;;;75.18;;
52614;SDS011;38508;53.158;6.614;2022-12-24T16:42:52;78.68;;;71.93;;